Time;durP1;ratioP1;P1;durP2;ratioP2;P2;SDS_P1;SDS_P2;PMS_P1;PMS_P2;Temp;Humidity;BMP_temperature;BMP_pressure;BME280_temperature;BME280_humidity;BME280_pressure;Samples;Min_cycle;Max_cycle;Signal;HPM_P1;HPM_P2
2021/06/26 00:01:13;;;;;;;5.85;2.80;;;;;;;12.11;72.45;101515.91;5073267;28;20870;-42
2021/06/26 00:03:39;;;;;;;10.88;3.13;;;;;;;12.09;72.63;101515.44;5064239;28;20086;-42
2021/06/26 00:06:06;;;;;;;12.90;2.90;;;;;;;12.08;72.58;101513.81;5066237;28;20794;-42
2021/06/26 00:08:33;;;;;;;10.05;3.33;;;;;;;12.04;72.72;101518.41;5066396;28;20071;-42
2021/06/26 00:11:00;;;;;;;10.77;2.60;;;;;;;12.01;72.93;101522.69;5069897;28;20561;-42
2021/06/26 00:13:27;;;;;;;13.73;2.33;;;;;;;11.98;72.93;101528.06;5060542;28;20047;-42
2021/06/26 00:15:54;;;;;;;9.40;3.00;;;;;;;11.94;72.98;101532.69;5068680;28;20478;-43
2021/06/26 00:18:21;;;;;;;10.93;3.42;;;;;;;11.91;72.93;101522.25;5071406;28;20079;-45
2021/06/26 00:20:48;;;;;;;8.82;2.45;;;;;;;11.90;73.12;101532.53;5059783;28;20594;-42
2021/06/26 00:23:15;;;;;;;7.63;3.00;;;;;;;11.87;73.24;101533.19;5069458;28;20055;-42
2021/06/26 00:25:42;;;;;;;7.68;3.15;;;;;;;11.87;73.20;101533.19;5071002;28;20139;-42
2021/06/26 00:28:09;;;;;;;9.00;3.22;;;;;;;11.86;73.32;101525.22;5072066;28;20503;-42
2021/06/26 00:30:36;;;;;;;8.55;3.35;;;;;;;11.85;73.45;101523.59;5059763;28;20136;-42
2021/06/26 00:33:03;;;;;;;7.00;2.60;;;;;;;11.85;73.37;101527.19;5070820;28;20821;-42
2021/06/26 00:35:30;;;;;;;10.60;2.90;;;;;;;11.85;73.40;101524.41;5059250;28;20489;-42
2021/06/26 00:37:56;;;;;;;9.15;2.45;;;;;;;11.86;73.36;101525.22;5069430;28;20393;-42
2021/06/26 00:40:23;;;;;;;9.57;2.92;;;;;;;11.86;73.40;101522.44;5059632;28;20043;-42
2021/06/26 00:42:50;;;;;;;5.65;2.53;;;;;;;11.87;73.45;101526.81;5070858;28;20044;-42
2021/06/26 00:45:18;;;;;;;13.52;3.85;;;;;;;11.87;73.73;101526.81;5058997;28;20041;-42
2021/06/26 00:47:45;;;;;;;9.15;2.53;;;;;;;11.87;73.65;101521.28;5067484;28;20041;-42
2021/06/26 00:50:23;;;;;;;5.55;2.10;;;;;;;11.90;73.74;101521.44;5062772;28;20038;-44
2021/06/26 00:52:50;;;;;;;9.63;2.28;;;;;;;11.91;73.66;101523.06;5079551;28;20083;-41
2021/06/26 00:55:19;;;;;;;6.20;2.40;;;;;;;11.95;73.93;101526.78;5062861;28;20032;-44
2021/06/26 00:57:54;;;;;;;6.47;2.50;;;;;;;11.96;73.63;101519.28;5065690;28;20087;-42
2021/06/26 01:00:22;;;;;;;6.68;2.05;;;;;;;11.96;73.80;101520.09;5069040;28;20039;-45
2021/06/26 01:02:48;;;;;;;5.40;2.15;;;;;;;11.97;73.85;101515.34;5072966;28;20131;-41
2021/06/26 01:05:16;;;;;;;9.10;1.95;;;;;;;11.97;73.79;101513.38;5066757;28;20062;-43
2021/06/26 01:07:43;;;;;;;7.80;2.20;;;;;;;12.00;73.60;101511.91;5072373;28;20048;-41
2021/06/26 01:10:11;;;;;;;6.60;1.77;;;;;;;12.01;73.58;101516.31;5079149;28;20362;-41
2021/06/26 01:12:38;;;;;;;4.32;1.83;;;;;;;11.97;73.62;101501.47;5074221;28;20076;-41
2021/06/26 01:15:09;;;;;;;4.53;1.30;;;;;;;11.97;73.64;101512.56;5063718;28;20040;-45
2021/06/26 01:17:37;;;;;;;6.20;1.55;;;;;;;11.95;73.59;101504.59;5072635;28;20040;-42
2021/06/26 01:20:07;;;;;;;3.83;1.50;;;;;;;11.94;73.45;101505.72;5054185;28;20037;-42
2021/06/26 01:22:41;;;;;;;4.47;1.40;;;;;;;11.97;73.48;101510.59;5074785;28;20056;-42
2021/06/26 01:25:12;;;;;;;3.30;1.40;;;;;;;12.00;73.56;101509.13;5062613;28;20044;-42
2021/06/26 01:27:40;;;;;;;4.68;1.50;;;;;;;12.02;73.43;101504.06;5067963;28;20048;-42
2021/06/26 01:30:08;;;;;;;5.38;1.75;;;;;;;12.03;73.36;101508.44;5056703;28;20135;-41
2021/06/26 01:32:35;;;;;;;4.10;1.25;;;;;;;12.02;73.50;101506.84;5066650;28;20087;-42
2021/06/26 01:35:04;;;;;;;5.80;1.55;;;;;;;12.04;73.70;101505.34;5061499;28;20037;-42
2021/06/26 01:37:32;;;;;;;5.00;1.45;;;;;;;12.04;73.52;101510.09;5068808;28;20037;-42
2021/06/26 01:39:59;;;;;;;5.28;1.40;;;;;;;12.05;73.52;101506.16;5069604;28;20037;-44
2021/06/26 01:42:26;;;;;;;4.85;1.77;;;;;;;12.03;73.45;101506.50;5064021;28;20563;-42
2021/06/26 01:44:56;;;;;;;4.53;1.15;;;;;;;12.00;73.56;101509.13;5072291;28;20053;-43
2021/06/26 01:47:23;;;;;;;6.05;1.45;;;;;;;12.01;73.57;101506.03;5066248;28;20044;-42
2021/06/26 01:49:50;;;;;;;2.78;1.50;;;;;;;12.02;73.60;101512.41;5072084;28;20040;-42
2021/06/26 01:52:17;;;;;;;7.25;2.40;;;;;;;12.05;73.49;101512.50;5072898;28;20153;-42
2021/06/26 01:54:44;;;;;;;4.10;1.20;;;;;;;12.07;73.65;101514.97;5092596;28;20054;-41
2021/06/26 01:57:11;;;;;;;5.95;2.20;;;;;;;12.07;73.86;101514.97;5062582;28;20132;-42
2021/06/26 01:59:38;;;;;;;8.88;1.58;;;;;;;12.07;73.73;101509.41;5062039;28;20054;-45
2021/06/26 02:02:06;;;;;;;6.00;1.33;;;;;;;12.10;73.86;101514.28;5071757;28;20040;-42
2021/06/26 02:04:34;;;;;;;3.97;1.13;;;;;;;12.10;73.70;101519.81;5059362;28;20898;-42
2021/06/26 02:07:02;;;;;;;4.28;1.58;;;;;;;12.10;73.77;101511.50;5071443;28;20140;-42
2021/06/26 02:09:29;;;;;;;1.83;1.23;;;;;;;12.11;73.56;101510.34;5075577;28;20060;-42
2021/06/26 02:11:56;;;;;;;4.38;1.50;;;;;;;12.10;73.76;101509.53;5057848;28;20124;-43
2021/06/26 02:14:23;;;;;;;5.18;1.40;;;;;;;12.13;73.80;101508.06;5058996;28;20120;-41
2021/06/26 02:16:50;;;;;;;4.70;1.40;;;;;;;12.12;73.77;101510.03;5060934;28;20045;-46
2021/06/26 02:19:17;;;;;;;10.95;2.25;;;;;;;12.12;73.97;101512.81;5059617;28;20127;-43
2021/06/26 02:21:44;;;;;;;6.05;1.50;;;;;;;12.14;73.98;101509.69;5067601;28;20037;-41
2021/06/26 02:24:11;;;;;;;4.57;1.50;;;;;;;12.13;74.05;101496.94;5071685;28;20132;-41
2021/06/26 02:26:39;;;;;;;2.97;1.63;;;;;;;12.13;74.04;101508.88;5059492;28;20055;-40
2021/06/26 02:29:06;;;;;;;4.18;1.42;;;;;;;12.12;74.20;101507.25;5065513;28;20127;-41
2021/06/26 02:31:33;;;;;;;7.55;1.45;;;;;;;12.12;74.12;101500.91;5064929;28;20080;-41
2021/06/26 02:34:00;;;;;;;9.95;2.10;;;;;;;12.09;74.06;101501.56;5063754;28;20059;-42
2021/06/26 02:36:27;;;;;;;5.60;1.20;;;;;;;12.06;74.11;101496.69;5055956;28;20044;-41
2021/06/26 02:38:54;;;;;;;2.50;1.70;;;;;;;12.04;74.17;101499.00;5054315;28;20047;-41
2021/06/26 02:41:22;;;;;;;5.30;1.45;;;;;;;12.02;74.27;101495.75;5063623;28;20409;-41
2021/06/26 02:43:49;;;;;;;4.50;1.45;;;;;;;12.00;74.41;101496.06;5059872;28;20041;-41
2021/06/26 02:46:16;;;;;;;5.32;1.67;;;;;;;12.00;74.58;101498.03;5064211;28;20044;-41
2021/06/26 02:48:43;;;;;;;4.35;1.30;;;;;;;11.98;74.47;101501.16;5067169;28;20412;-43
2021/06/26 02:51:12;;;;;;;3.33;1.08;;;;;;;11.98;74.76;101497.56;5064878;28;20980;-42
2021/06/26 02:53:39;;;;;;;5.43;1.42;;;;;;;11.99;74.90;101490.88;5080964;28;20075;-44
2021/06/26 02:56:06;;;;;;;3.33;1.60;;;;;;;12.00;74.65;101492.47;5082898;28;20130;-41
2021/06/26 02:58:33;;;;;;;8.73;1.50;;;;;;;11.99;74.70;101490.88;5062810;28;20088;-42
2021/06/26 03:01:00;;;;;;;4.45;1.35;;;;;;;11.96;74.99;101486.81;5069464;28;20120;-41
2021/06/26 03:03:27;;;;;;;4.88;1.40;;;;;;;11.95;75.18;101484.34;5060772;28;20136;-41
2021/06/26 03:05:54;;;;;;;5.30;1.48;;;;;;;11.95;75.10;101496.25;5068677;28;20105;-41
2021/06/26 03:08:21;;;;;;;7.65;1.85;;;;;;;11.94;74.95;101482.72;5069800;28;20492;-41
2021/06/26 03:10:47;;;;;;;6.20;1.55;;;;;;;11.96;75.09;101497.06;5074491;28;20079;-42
2021/06/26 03:13:15;;;;;;;5.85;1.63;;;;;;;11.98;75.31;101500.31;5071874;28;20036;-41
2021/06/26 03:15:44;;;;;;;5.57;1.65;;;;;;;12.00;75.38;101498.03;5065757;28;20502;-41
2021/06/26 03:18:12;;;;;;;5.88;1.80;;;;;;;12.01;75.42;101499.66;5069905;28;20036;-44
2021/06/26 03:20:39;;;;;;;3.38;1.65;;;;;;;12.03;75.61;101491.78;5068120;28;20052;-43
2021/06/26 03:23:06;;;;;;;2.92;1.45;;;;;;;12.05;75.53;101486.72;5073858;28;20131;-45
2021/06/26 03:25:33;;;;;;;4.97;1.40;;;;;;;12.08;75.43;101486.06;5043689;28;20106;-44
2021/06/26 03:28:00;;;;;;;6.82;1.58;;;;;;;12.07;75.36;101490.78;5077273;28;20043;-43
2021/06/26 03:30:26;;;;;;;8.05;1.58;;;;;;;12.09;75.67;101485.72;5062739;28;20046;-44
2021/06/26 03:32:54;;;;;;;6.47;2.78;;;;;;;12.11;75.68;101488.16;5067295;28;20713;-42
2021/06/26 03:35:21;;;;;;;3.33;1.33;;;;;;;12.14;75.58;101495.81;5058237;28;20477;-42
2021/06/26 03:37:47;;;;;;;6.38;1.63;;;;;;;12.14;75.37;101487.47;5065972;28;20136;-42
2021/06/26 03:40:14;;;;;;;9.77;3.53;;;;;;;12.15;75.73;101489.13;5068082;28;20127;-46
2021/06/26 03:42:41;;;;;;;5.85;1.83;;;;;;;12.17;75.90;101500.69;5065300;28;20128;-42
2021/06/26 03:45:09;;;;;;;3.05;2.08;;;;;;;12.22;75.78;101497.72;5059120;28;20041;-42
2021/06/26 03:47:36;;;;;;;3.47;2.17;;;;;;;12.23;75.97;101491.81;5061015;28;20136;-43
2021/06/26 03:50:07;;;;;;;6.28;1.40;;;;;;;12.27;75.98;101497.50;5054449;28;20044;-47
2021/06/26 03:52:34;;;;;;;3.17;1.40;;;;;;;12.25;76.08;101499.81;5074801;28;20044;-43
2021/06/26 03:55:01;;;;;;;3.78;1.38;;;;;;;12.25;75.96;101499.81;5068624;28;20131;-42
2021/06/26 03:57:28;;;;;;;5.18;1.10;;;;;;;12.25;75.98;101510.91;5063238;28;20049;-44
2021/06/26 03:59:54;;;;;;;5.20;2.17;;;;;;;12.22;76.22;101514.38;5061631;28;20159;-44
2021/06/26 04:02:21;;;;;;;4.25;1.00;;;;;;;12.25;76.25;101510.91;5062116;28;20072;-42
2021/06/26 04:04:48;;;;;;;8.10;1.45;;;;;;;12.27;76.04;101514.16;5066659;28;20353;-42
2021/06/26 04:07:15;;;;;;;6.95;2.42;;;;;;;12.30;75.93;101519.03;5069576;28;20119;-46
2021/06/26 04:09:42;;;;;;;4.43;2.67;;;;;;;12.31;76.11;101514.31;5074823;28;20131;-43
2021/06/26 04:12:09;;;;;;;4.07;1.42;;;;;;;12.31;76.30;101512.31;5071483;28;20123;-41
2021/06/26 04:14:37;;;;;;;2.50;1.30;;;;;;;12.32;76.16;101505.63;5055920;28;20048;-41
2021/06/26 04:17:04;;;;;;;6.20;1.33;;;;;;;12.35;76.22;101518.03;5063952;28;20072;-44
2021/06/26 04:19:31;;;;;;;4.18;1.20;;;;;;;12.37;76.44;101510.16;5068734;28;20037;-42
2021/06/26 04:21:58;;;;;;;7.32;1.92;;;;;;;12.38;76.33;101520.13;5074032;28;20123;-46
2021/06/26 04:24:25;;;;;;;3.30;0.98;;;;;;;12.38;76.45;101520.94;5059108;28;20059;-44
2021/06/26 04:26:52;;;;;;;4.50;1.17;;;;;;;12.39;76.42;101522.56;5074071;28;20135;-49
2021/06/26 04:29:22;;;;;;;6.13;1.05;;;;;;;12.41;76.56;101525.81;5075911;28;20068;-42
2021/06/26 04:31:48;;;;;;;2.28;0.85;;;;;;;12.42;76.54;101530.22;5070734;28;20053;-46
2021/06/26 04:34:15;;;;;;;6.15;1.52;;;;;;;12.41;76.96;101517.50;5056818;28;20040;-43
2021/06/26 04:36:43;;;;;;;4.43;1.00;;;;;;;12.42;76.75;101530.22;5056024;28;20159;-42
2021/06/26 04:39:09;;;;;;;4.38;0.95;;;;;;;12.43;76.73;101526.28;5061805;28;20479;-41
2021/06/26 04:41:37;;;;;;;3.25;1.30;;;;;;;12.45;76.64;101525.94;5067195;28;20044;-41
2021/06/26 04:44:05;;;;;;;5.15;1.10;;;;;;;12.46;76.51;101531.19;5068027;28;20067;-41
2021/06/26 04:46:32;;;;;;;6.22;1.48;;;;;;;12.45;76.50;101529.53;5069586;28;20135;-41
2021/06/26 04:48:59;;;;;;;1.83;0.70;;;;;;;12.43;76.68;101528.25;5061848;28;20064;-41
2021/06/26 04:51:26;;;;;;;1.77;0.80;;;;;;;12.43;76.88;101533.81;5064257;28;20032;-44
2021/06/26 04:53:53;;;;;;;1.52;0.73;;;;;;;12.43;76.77;101531.84;5078477;28;20079;-41
2021/06/26 04:56:20;;;;;;;4.15;1.08;;;;;;;12.45;76.64;101537.06;5077649;28;20040;-43
2021/06/26 04:58:47;;;;;;;5.53;1.65;;;;;;;12.44;77.11;101541.81;5063252;28;20040;-45
2021/06/26 05:01:14;;;;;;;2.25;0.70;;;;;;;12.46;76.85;101541.47;5068134;28;20123;-43
2021/06/26 05:03:41;;;;;;;6.10;1.75;;;;;;;12.45;77.19;101532.31;5059885;28;20545;-43
2021/06/26 05:06:08;;;;;;;6.45;2.38;;;;;;;12.47;77.06;101540.31;5063996;28;20059;-42
2021/06/26 05:08:35;;;;;;;2.88;0.80;;;;;;;12.48;77.13;101542.75;5057268;28;20072;-43
2021/06/26 05:11:02;;;;;;;1.52;0.80;;;;;;;12.51;76.95;101541.25;5072625;28;20548;-41
2021/06/26 05:13:30;;;;;;;3.35;1.10;;;;;;;12.52;77.03;101538.13;5058683;28;20583;-43
2021/06/26 05:15:57;;;;;;;2.95;0.60;;;;;;;12.51;76.90;101542.09;5057689;28;20097;-43
2021/06/26 05:18:27;;;;;;;1.52;0.50;;;;;;;12.53;76.90;101539.78;5060949;28;20049;-42
2021/06/26 05:20:55;;;;;;;2.50;0.50;;;;;;;12.58;76.80;101545.13;5070619;28;20438;-44
2021/06/26 05:23:22;;;;;;;8.57;1.00;;;;;;;12.56;76.65;101539.09;5067582;28;20136;-42
2021/06/26 05:25:49;;;;;;;2.10;0.60;;;;;;;12.56;76.46;101539.09;5066350;28;20124;-43
2021/06/26 05:28:20;;;;;;;1.88;0.68;;;;;;;12.56;76.46;101539.09;5067809;28;20083;-43
2021/06/26 05:30:47;;;;;;;2.25;0.75;;;;;;;12.58;76.60;101542.34;5063623;28;20048;-42
2021/06/26 05:33:14;;;;;;;4.28;0.70;;;;;;;12.57;76.42;101542.69;5060715;28;20048;-41
2021/06/26 05:35:42;;;;;;;2.05;0.50;;;;;;;12.57;76.28;101551.84;5063706;28;20071;-42
2021/06/26 05:38:09;;;;;;;2.13;0.55;;;;;;;12.56;76.16;101561.31;5061261;28;20052;-43
2021/06/26 05:40:35;;;;;;;1.00;0.50;;;;;;;12.55;76.39;101562.47;5053873;28;20083;-41
2021/06/26 05:43:03;;;;;;;3.17;0.75;;;;;;;12.56;76.18;101566.88;5066609;28;20044;-42
2021/06/26 05:45:30;;;;;;;3.88;0.90;;;;;;;12.53;76.29;101567.53;5073992;28;20072;-41
2021/06/26 05:47:57;;;;;;;4.63;0.70;;;;;;;12.53;76.19;101573.09;5072842;28;20131;-42
2021/06/26 05:50:24;;;;;;;5.32;0.47;;;;;;;12.50;76.23;101568.22;5062307;28;20044;-42
2021/06/26 05:52:53;;;;;;;2.50;1.05;;;;;;;12.49;75.97;101561.06;5072751;28;20091;-43
2021/06/26 05:55:21;;;;;;;2.45;0.55;;;;;;;12.48;75.92;101567.75;5080654;28;20075;-43
2021/06/26 05:57:48;;;;;;;2.33;0.52;;;;;;;12.50;76.00;101556.28;5070546;28;20128;-42
2021/06/26 06:00:17;;;;;;;2.88;0.60;;;;;;;12.51;75.75;101567.06;5066093;28;20412;-42
2021/06/26 06:02:45;;;;;;;2.20;0.60;;;;;;;12.52;75.75;101560.34;5071759;28;20072;-41
2021/06/26 06:05:13;;;;;;;2.58;0.38;;;;;;;12.54;75.57;101566.41;5072829;28;20094;-41
2021/06/26 06:07:41;;;;;;;0.95;0.40;;;;;;;12.52;75.77;101565.13;5066541;28;20041;-41
2021/06/26 06:10:10;;;;;;;3.05;0.68;;;;;;;12.56;75.63;101566.06;5074454;28;20123;-42
2021/06/26 06:12:38;;;;;;;4.00;0.68;;;;;;;12.61;75.26;101572.22;5067404;28;20418;-41
2021/06/26 06:15:07;;;;;;;2.88;0.60;;;;;;;12.62;75.52;101570.25;5064543;28;20616;-44
2021/06/26 06:17:34;;;;;;;9.55;2.35;;;;;;;12.62;75.36;101576.63;5060221;28;20471;-42
2021/06/26 06:20:04;;;;;;;5.35;0.93;;;;;;;12.67;74.96;101564.50;5059350;28;20045;-42
2021/06/26 06:22:32;;;;;;;0.80;0.38;;;;;;;12.70;74.99;101574.94;5060212;28;20130;-44
2021/06/26 06:25:00;;;;;;;2.40;0.47;;;;;;;12.72;74.87;101576.22;5072192;28;20068;-42
2021/06/26 06:27:27;;;;;;;0.65;0.50;;;;;;;12.76;74.76;101582.72;5074500;28;20079;-43
2021/06/26 06:29:53;;;;;;;2.35;0.55;;;;;;;12.80;74.66;101582.84;5071487;28;20116;-42
2021/06/26 06:32:20;;;;;;;4.22;0.73;;;;;;;12.84;74.65;101579.06;5060543;28;20527;-41
2021/06/26 06:34:47;;;;;;;2.88;0.60;;;;;;;12.88;74.77;101578.38;5069457;28;20375;-43
2021/06/26 06:37:14;;;;;;;3.60;0.80;;;;;;;12.94;74.54;101582.59;5055621;28;20135;-41
2021/06/26 06:39:41;;;;;;;1.58;0.70;;;;;;;12.99;74.56;101579.59;5059808;28;20084;-41
2021/06/26 06:42:08;;;;;;;16.38;3.60;;;;;;;13.07;74.58;101578.72;5067450;28;20542;-42
2021/06/26 06:44:35;;;;;;;2.95;0.60;;;;;;;13.13;74.47;101580.16;5064616;28;20044;-42
2021/06/26 06:47:02;;;;;;;2.47;0.50;;;;;;;13.14;74.25;101576.19;5056976;28;20226;-41
2021/06/26 06:49:28;;;;;;;3.55;0.55;;;;;;;13.18;74.23;101588.28;5066546;28;20032;-41
2021/06/26 06:51:55;;;;;;;3.25;0.50;;;;;;;13.20;74.02;101581.22;5055441;28;20070;-41
2021/06/26 06:54:22;;;;;;;4.28;0.55;;;;;;;13.24;73.87;101586.88;5070207;28;20063;-43
2021/06/26 06:56:49;;;;;;;1.60;0.45;;;;;;;13.31;73.81;101590.75;5065531;28;20075;-42
2021/06/26 06:59:15;;;;;;;3.03;0.50;;;;;;;13.39;73.32;101600.16;5055608;28;20127;-42
2021/06/26 07:01:42;;;;;;;0.68;0.40;;;;;;;13.43;73.31;101598.31;5059818;28;20128;-46
2021/06/26 07:04:09;;;;;;;1.80;0.40;;;;;;;13.48;72.64;101603.66;5052062;28;20048;-41
2021/06/26 07:06:36;;;;;;;4.97;0.70;;;;;;;13.55;72.83;101603.91;5059658;28;20127;-41
2021/06/26 07:09:03;;;;;;;2.58;0.50;;;;;;;13.59;72.49;101602.06;5054349;28;20136;-42
2021/06/26 07:11:30;;;;;;;4.90;0.75;;;;;;;13.64;72.56;101603.78;5058438;28;20102;-41
2021/06/26 07:13:57;;;;;;;1.50;0.70;;;;;;;13.65;72.24;101600.69;5065845;28;20039;-41
2021/06/26 07:16:23;;;;;;;1.45;0.50;;;;;;;13.68;71.84;101611.13;5055789;28;20072;-43
2021/06/26 07:18:50;;;;;;;0.57;0.43;;;;;;;13.65;71.55;101609.03;5062497;28;20504;-41
2021/06/26 07:21:21;;;;;;;2.05;0.40;;;;;;;13.57;71.45;101607.16;5058186;28;20101;-41
2021/06/26 07:23:48;;;;;;;1.55;0.30;;;;;;;13.58;71.19;101611.53;5077483;28;20083;-42
2021/06/26 07:26:15;;;;;;;5.53;0.50;;;;;;;13.59;70.97;101615.97;5060187;28;20090;-41
2021/06/26 07:28:42;;;;;;;1.23;0.20;;;;;;;13.55;70.80;101609.47;5077222;28;20036;-50
2021/06/26 07:31:10;;;;;;;0.30;0.22;;;;;;;13.55;70.95;101609.47;5056474;28;20044;-42
2021/06/26 07:33:37;;;;;;;0.88;0.40;;;;;;;13.58;71.00;101607.97;5059127;28;20082;-41
2021/06/26 07:36:05;;;;;;;0.95;0.30;;;;;;;13.58;71.06;101605.97;5066557;28;20056;-41
2021/06/26 07:38:32;;;;;;;3.30;0.38;;;;;;;13.62;71.21;101608.91;5057504;28;20123;-42
2021/06/26 07:40:59;;;;;;;1.48;0.30;;;;;;;13.71;71.07;101613.22;5063527;28;20041;-41
2021/06/26 07:43:26;;;;;;;2.83;0.65;;;;;;;13.74;70.98;101611.72;5065774;28;20083;-41
2021/06/26 07:45:53;;;;;;;1.70;0.40;;;;;;;13.81;71.03;101607.19;5054302;28;20457;-41
2021/06/26 07:48:20;;;;;;;1.85;0.60;;;;;;;13.92;71.13;101607.56;5066476;28;20048;-42
2021/06/26 07:50:51;;;;;;;3.25;0.50;;;;;;;13.96;71.12;101614.88;5050983;28;20498;-42
2021/06/26 07:53:18;;;;;;;1.37;0.47;;;;;;;14.04;70.95;101611.16;5070856;28;20127;-44
2021/06/26 07:55:53;;;;;;;1.15;0.73;;;;;;;14.07;70.95;101608.84;5062397;28;20490;-41
2021/06/26 07:58:25;;;;;;;1.85;0.70;;;;;;;14.04;70.33;101615.91;5073512;28;20139;-41
2021/06/26 08:00:54;;;;;;;1.42;0.57;;;;;;;13.99;70.34;101610.56;5060363;28;20444;-43
2021/06/26 08:03:21;;;;;;;0.95;0.43;;;;;;;14.02;70.44;101607.91;5063304;28;20433;-43
2021/06/26 08:05:49;;;;;;;2.88;0.65;;;;;;;14.13;70.40;101618.59;5064955;28;20051;-44
2021/06/26 08:08:16;;;;;;;19.95;1.70;;;;;;;14.19;70.36;101617.22;5070844;28;20148;-43
2021/06/26 08:10:44;;;;;;;1.13;0.40;;;;;;;14.23;70.41;101618.13;5067467;28;20045;-43
2021/06/26 08:13:14;;;;;;;3.70;0.75;;;;;;;14.26;70.09;101617.44;5071398;28;20127;-43
2021/06/26 08:15:46;;;;;;;1.70;0.47;;;;;;;14.33;69.97;101620.47;5065359;28;20064;-43
2021/06/26 08:18:15;;;;;;;4.28;0.68;;;;;;;14.40;69.98;101618.72;5068551;28;20052;-46
2021/06/26 08:20:42;;;;;;;2.70;0.60;;;;;;;14.48;70.04;101625.34;5071020;28;20569;-44
2021/06/26 08:23:10;;;;;;;6.30;0.70;;;;;;;14.49;69.93;101618.59;5061052;28;20079;-44
2021/06/26 08:25:36;;;;;;;5.22;0.70;;;;;;;14.49;69.90;101622.19;5061851;28;20155;-45
2021/06/26 08:28:04;;;;;;;2.70;0.52;;;;;;;14.55;69.80;101631.13;5061864;28;20524;-44
2021/06/26 08:30:32;;;;;;;2.53;0.60;;;;;;;14.56;69.61;101622.41;5051076;28;20068;-43
2021/06/26 08:32:59;;;;;;;2.60;0.60;;;;;;;14.65;69.49;101630.66;5067693;28;20139;-43
2021/06/26 08:35:26;;;;;;;1.70;0.43;;;;;;;14.72;69.33;101624.50;5053244;28;20048;-43
2021/06/26 08:37:53;;;;;;;3.05;0.80;;;;;;;14.83;69.24;101626.41;5054001;28;20049;-46
2021/06/26 08:40:21;;;;;;;4.65;0.90;;;;;;;14.94;69.15;101626.72;5068625;28;20040;-47
2021/06/26 08:42:48;;;;;;;3.78;0.70;;;;;;;14.94;69.02;101633.13;5069032;28;20559;-44
2021/06/26 08:45:17;;;;;;;2.92;0.80;;;;;;;14.92;68.65;101629.06;5066660;28;20047;-44
2021/06/26 08:47:49;;;;;;;2.00;0.75;;;;;;;14.85;68.39;101624.06;5051610;28;20124;-43
2021/06/26 08:50:18;;;;;;;28.40;21.30;;;;;;;14.86;68.69;101625.72;5067249;28;20081;-45
2021/06/26 08:52:46;;;;;;;1.63;0.80;;;;;;;14.80;68.58;101627.13;5070523;28;20836;-44
2021/06/26 08:55:13;;;;;;;1.25;0.52;;;;;;;14.63;68.58;101638.56;5051279;28;20044;-43
2021/06/26 08:57:42;;;;;;;5.80;0.85;;;;;;;14.58;68.60;101636.00;5047222;28;20049;-44
2021/06/26 09:00:21;;;;;;;3.78;0.60;;;;;;;14.58;68.67;101631.25;5053918;28;20083;-43
2021/06/26 09:02:49;;;;;;;6.28;0.73;;;;;;;14.60;68.38;101636.47;5061032;28;20144;-41
2021/06/26 09:05:30;;;;;;;3.13;0.47;;;;;;;14.59;67.73;101640.41;5050473;28;20496;-46
2021/06/26 09:08:14;;;;;;;3.40;0.30;;;;;;;14.65;68.38;101636.22;5053267;28;20367;-42
2021/06/26 09:10:43;;;;;;;2.58;0.60;;;;;;;14.72;68.42;101644.78;5050197;28;20044;-44
2021/06/26 09:13:24;;;;;;;0.98;0.70;;;;;;;14.71;68.30;101645.97;5058038;28;20855;-53
2021/06/26 09:16:04;;;;;;;5.90;0.93;;;;;;;14.63;67.87;101644.94;5055059;28;20045;-44
2021/06/26 09:18:56;;;;;;;2.30;0.40;;;;;;;14.69;67.97;101641.91;5055672;28;20090;-43
2021/06/26 09:21:30;;;;;;;1.85;0.45;;;;;;;14.65;67.64;101647.38;5050973;28;20043;-43
2021/06/26 09:24:00;;;;;;;4.10;1.00;;;;;;;14.82;68.27;101641.53;5063134;28;20122;-43
2021/06/26 09:26:28;;;;;;;2.03;0.70;;;;;;;15.43;68.32;101646.91;5061960;28;20452;-43
2021/06/26 09:28:55;;;;;;;1.63;0.50;;;;;;;15.87;67.76;101640.16;5062742;28;20079;-43
2021/06/26 09:31:22;;;;;;;1.77;0.88;;;;;;;16.07;67.19;101641.06;5064237;28;20060;-48
2021/06/26 09:34:00;;;;;;;1.23;0.60;;;;;;;16.05;65.73;101635.81;5065334;28;20446;-47
2021/06/26 09:36:32;;;;;;;2.28;0.73;;;;;;;15.92;65.46;101633.47;5053480;28;20123;-41
2021/06/26 09:39:06;;;;;;;6.07;0.75;;;;;;;16.11;65.90;101637.19;5056824;28;20124;-43
2021/06/26 09:41:34;;;;;;;2.85;0.35;;;;;;;16.42;65.65;101634.34;5063775;28;20466;-44
2021/06/26 09:44:08;;;;;;;2.25;0.70;;;;;;;16.55;64.15;101651.84;5050532;28;20049;-40
2021/06/26 09:46:46;;;;;;;2.40;0.50;;;;;;;16.54;63.75;101638.25;5067425;28;20496;-41
2021/06/26 09:49:13;;;;;;;2.53;0.70;;;;;;;16.56;64.23;101641.47;5060972;28;20187;-41
2021/06/26 09:51:40;;;;;;;5.28;0.82;;;;;;;16.48;63.81;101645.25;5056658;28;20128;-41
2021/06/26 09:54:09;;;;;;;1.55;0.50;;;;;;;16.48;63.81;101634.06;5051603;28;20072;-42
2021/06/26 09:56:47;;;;;;;2.42;0.63;;;;;;;16.59;62.95;101637.97;5058052;28;20123;-41
2021/06/26 09:59:16;;;;;;;5.88;1.75;;;;;;;16.60;63.81;101634.00;5046559;28;20140;-44
2021/06/26 10:01:46;;;;;;;4.57;0.68;;;;;;;16.57;63.66;101629.13;5056622;28;20116;-43
2021/06/26 10:04:15;;;;;;;3.20;0.73;;;;;;;16.77;63.77;101631.59;5066315;28;20055;-44
2021/06/26 10:06:46;;;;;;;2.85;0.57;;;;;;;16.81;63.05;101634.47;5053907;28;20123;-42
2021/06/26 10:09:15;;;;;;;1.80;0.50;;;;;;;16.56;63.44;101627.50;5064653;28;20036;-45
2021/06/26 10:11:42;;;;;;;2.97;0.63;;;;;;;16.33;63.74;101633.75;5063478;28;20068;-42
2021/06/26 10:14:11;;;;;;;3.50;0.77;;;;;;;16.35;63.88;101637.00;5061623;28;20165;-42
2021/06/26 10:16:41;;;;;;;3.42;0.63;;;;;;;16.49;63.76;101630.13;5054981;28;20131;-41
2021/06/26 10:19:12;;;;;;;2.90;0.50;;;;;;;16.60;63.48;101636.81;5063068;28;20825;-41
2021/06/26 10:21:43;;;;;;;1.88;0.60;;;;;;;16.62;63.27;101629.66;5056493;28;20119;-47
2021/06/26 10:24:13;;;;;;;2.53;0.50;;;;;;;16.53;63.12;101626.25;5062915;28;20132;-42
2021/06/26 10:26:42;;;;;;;1.30;0.50;;;;;;;16.43;63.21;101638.78;5065005;28;20123;-36
2021/06/26 10:29:09;;;;;;;9.13;1.65;;;;;;;16.40;63.17;101642.28;5080985;28;20051;-42
2021/06/26 10:31:41;;;;;;;6.78;0.60;;;;;;;16.39;62.86;101637.06;5048428;28;20115;-39
2021/06/26 10:34:10;;;;;;;;;;;;;;;16.36;62.69;101638.59;5048380;28;20040;-43
2021/06/26 10:36:38;;;;;;;3.38;0.60;;;;;;;16.32;63.33;101636.91;5063645;28;20171;-46
2021/06/26 10:39:26;;;;;;;5.22;0.60;;;;;;;16.25;62.48;101633.94;5060919;28;20080;-43
2021/06/26 10:42:03;;;;;;;7.65;1.23;;;;;;;16.31;62.98;101629.66;5051523;28;20037;-43
2021/06/26 10:44:46;;;;;;;2.45;0.70;;;;;;;16.53;62.69;101642.22;5059816;28;20047;-42
2021/06/26 10:47:14;;;;;;;3.25;0.60;;;;;;;16.64;62.60;101637.69;5070932;28;20516;-41
2021/06/26 10:49:42;;;;;;;5.40;0.93;;;;;;;16.74;62.59;101635.13;5067763;28;20090;-46
2021/06/26 10:52:12;;;;;;;1.85;0.70;;;;;;;16.74;61.85;101642.69;5060830;28;20056;-42
2021/06/26 10:55:11;;;;;;;1.10;0.93;;;;;;;16.73;61.75;101641.09;5050235;28;20150;-47
2021/06/26 10:57:46;;;;;;;1.05;0.50;;;;;;;16.73;61.86;101653.06;5024090;28;20068;-44
2021/06/26 11:00:14;;;;;;;4.10;0.60;;;;;;;16.73;62.16;101643.88;5056231;28;20083;-43
2021/06/26 11:02:43;;;;;;;1.15;0.50;;;;;;;16.72;61.93;101643.06;5066355;28;20817;-43
2021/06/26 11:05:13;;;;;;;1.38;0.40;;;;;;;16.70;61.69;101648.22;5048200;28;20140;-43
2021/06/26 11:07:40;;;;;;;2.35;0.40;;;;;;;16.62;61.53;101645.63;5049875;28;20058;-47
2021/06/26 11:10:12;;;;;;;3.22;0.60;;;;;;;16.55;61.79;101645.47;5048046;28;20063;-44
2021/06/26 11:12:45;;;;;;;2.53;0.70;;;;;;;16.59;61.91;101637.97;5064017;28;20036;-44
2021/06/26 11:15:13;;;;;;;1.60;0.40;;;;;;;16.64;61.88;101652.47;5058340;28;20119;-44
2021/06/26 11:17:43;;;;;;;12.48;1.58;;;;;;;16.59;61.63;101635.16;5060939;28;20053;-43
2021/06/26 11:20:15;;;;;;;4.25;0.80;;;;;;;16.62;61.71;101642.84;5071611;28;20768;-43
2021/06/26 11:23:01;;;;;;;2.33;0.60;;;;;;;16.60;61.17;101631.22;5062917;28;20115;-43
2021/06/26 11:25:29;;;;;;;2.17;0.98;;;;;;;16.57;61.74;101637.53;5057681;28;20075;-44
2021/06/26 11:28:08;;;;;;;2.53;0.68;;;;;;;16.48;61.49;101650.84;5054554;28;20139;-42
2021/06/26 11:30:38;;;;;;;4.53;0.60;;;;;;;16.39;61.93;101642.66;5064319;28;20128;-43